Vancouver, British Columbia

6:18 PM PDT on August 29, 2016 (GMT -0700)
Vancouver International | | Change Station

Elev 13 ft 49.18 °N, 123.17 °W | Updated 18 minutes ago

Mostly Cloudy
Mostly Cloudy
68 °F
Feels Like 68 °F
N
6
Wind Variable Wind from NW

Today
High -- | Low -- °F
--% Chance of Precip.
Yesterday
High -- | Low -- °F
Precip. -- in
Pressure 29.96 in
Visibility 30.0 miles
Clouds Scattered Clouds 9000 ft
Mostly Cloudy 20000 ft
Mostly Cloudy 25000 ft
Dew Point 59 °F
Humidity 73%
Rainfall 0.00 in
Snow Depth Not available.
6:25 AM 8:00 PM
Waning Crescent, 6% visible
METAR CYVR 300100Z 32005KT 30SM SCT090 BKN200 BKN250 20/15 A2995 RMK AC3CS2CI2 SLP143 DENSITY ALT 600FT
Pressure 29.96 in
Visibility 30.0 miles
Clouds Scattered Clouds 9000 ft
Mostly Cloudy 20000 ft
Mostly Cloudy 25000 ft
Dew Point 59 °F
Humidity 73%
Rainfall 0.00 in
Snow Depth Not available.
6:25 AM 8:00 PM
Waning Crescent, 6% visible
METAR CYVR 300100Z 32005KT 30SM SCT090 BKN200 BKN250 20/15 A2995 RMK AC3CS2CI2 SLP143 DENSITY ALT 600FT

10-Day Weather Forecast

Almanac

Astronomy

Aug. 29, 2016 Rise Set
Actual Time
Civil Twilight
Nautical Twilight
Astronomical Twilight
Moon
Length of Visible Light
Length of Day
Tomorrow will be .
, % of the Moon is Illuminated

Today's Extremes

Country Highs Country Lows

Community

WunderPhotos

Upload Photos

1,935,709 photos uploaded!

WunderBlog® & News

Nearby

Air Quality

  Air Quality AQ Index Pollutant
Not available.

Snow Depth

Station Depth Elevation

Earthquake Activity

City Distance Mag. Time & Date
Minimum magnitude displayed is 2.5.

Coastal Water Temperatures

Place Temperature

Stations

Nearby Weather Stations

Station Location Temp. Windchill Dew Point Humidity Wind Precip. Elev Updated Type
                   

Watches & Warnings

There are currently no watches in effect.